Time;durP1;ratioP1;P1;durP2;ratioP2;P2;SDS_P1;SDS_P2;PMS_P1;PMS_P2;Temp;Humidity;BMP_temperature;BMP_pressure;BME280_temperature;BME280_humidity;BME280_pressure;Samples;Min_cycle;Max_cycle;Signal;HPM_P1;HPM_P2
2020/12/02 00:00:59;;;;;;;52.20;26.63;;;;;;;0.96;98.98;98957.91;4974508;28;20026;-73
2020/12/02 00:03:37;;;;;;;47.03;25.95;;;;;;;0.94;98.69;98957.91;4975505;28;20109;-73
2020/12/02 00:06:04;;;;;;;51.85;25.80;;;;;;;0.94;98.54;98955.34;4975348;28;20579;-74
2020/12/02 00:08:36;;;;;;;57.85;26.20;;;;;;;0.91;98.46;98956.94;4975496;28;20077;-73
2020/12/02 00:11:07;;;;;;;50.88;24.20;;;;;;;0.93;98.32;98960.41;4975340;28;20069;-73
2020/12/02 00:16:56;;;;;;;49.13;27.15;;;;;;;1.01;98.19;98969.09;4972341;28;20093;-73
2020/12/02 00:19:22;;;;;;;51.58;25.90;;;;;;;0.95;98.32;98958.75;4990232;28;20061;-73
2020/12/02 00:22:07;;;;;;;51.47;25.92;;;;;;;0.96;98.41;98961.31;4975276;28;20103;-73
2020/12/02 00:24:34;;;;;;;56.22;25.25;;;;;;;0.95;98.21;98963.84;4974879;28;20023;-73
2020/12/02 00:27:02;;;;;;;54.40;25.38;;;;;;;0.96;98.27;98965.56;4975186;28;20026;-73
2020/12/02 00:29:27;;;;;;;55.25;27.25;;;;;;;0.82;98.31;98961.84;4975086;28;20034;-73
2020/12/02 00:31:53;;;;;;;54.30;25.95;;;;;;;0.79;98.38;98954.13;4975225;28;20030;-73
2020/12/02 00:34:18;;;;;;;53.42;26.08;;;;;;;0.88;98.37;98955.22;4974778;28;20023;-73
2020/12/02 00:36:43;;;;;;;51.35;25.83;;;;;;;0.82;98.15;98957.59;4974919;28;20027;-73
2020/12/02 00:39:09;;;;;;;56.35;26.38;;;;;;;0.76;98.45;98958.31;4974994;28;20058;-73
2020/12/02 00:41:35;;;;;;;48.50;23.95;;;;;;;0.86;98.63;98950.88;4974805;28;20090;-76
2020/12/02 00:44:00;;;;;;;53.30;25.30;;;;;;;0.79;98.51;98951.59;4974598;28;20034;-75
2020/12/02 08:01:08;;;;;;;40.25;19.75;;;;;;;1.13;94.53;98903.03;5671282;23;20090;-74
2020/12/02 08:03:39;;;;;;;41.85;20.80;;;;;;;1.11;94.14;98899.56;4967271;28;20046;-73
2020/12/02 08:06:11;;;;;;;43.88;21.48;;;;;;;1.10;93.97;98908.06;4951227;28;20058;-73
2020/12/02 08:08:36;;;;;;;40.08;19.40;;;;;;;1.18;93.95;98900.59;4952712;28;20038;-73
2020/12/02 08:11:14;;;;;;;41.42;20.38;;;;;;;1.19;94.35;98897.19;4952626;28;20027;-73
2020/12/02 08:13:54;;;;;;;39.45;18.15;;;;;;;1.28;93.63;98905.91;4955761;29;20085;-73
2020/12/02 08:16:24;;;;;;;;;;;;;;;1.18;93.33;98905.69;4956605;28;20031;-73
2020/12/02 08:18:52;;;;;;;37.28;17.50;;;;;;;1.25;93.15;98900.72;4956185;28;20164;-73
2020/12/02 08:21:20;;;;;;;37.40;17.70;;;;;;;1.23;93.66;98897.31;4955842;28;20034;-74
2020/12/02 08:24:03;;;;;;;47.55;22.02;;;;;;;1.08;92.53;98899.53;4956016;28;20019;-73
2020/12/02 08:26:30;;;;;;;46.45;20.45;;;;;;;1.33;93.24;98900.03;4955876;28;20476;-73
2020/12/02 08:29:02;;;;;;;38.17;20.15;;;;;;;1.15;91.39;98903.91;4955980;28;20376;-73
2020/12/02 08:31:30;;;;;;;39.58;18.65;;;;;;;1.16;93.13;98898.00;4955844;28;20472;-73
2020/12/02 08:34:08;;;;;;;44.97;19.48;;;;;;;1.20;91.82;98894.66;4955975;28;20452;-72
2020/12/02 08:36:35;;;;;;;45.85;19.55;;;;;;;1.25;92.60;98898.19;4955629;28;20050;-72
2020/12/02 08:39:00;;;;;;;42.85;20.70;;;;;;;1.30;91.72;98900.81;4955618;28;20031;-72
2020/12/02 08:41:25;;;;;;;40.15;19.50;;;;;;;1.37;91.69;98901.84;4955508;28;20086;-72
2020/12/02 08:44:06;;;;;;;37.67;18.83;;;;;;;1.26;91.36;98899.06;4955582;28;20019;-73
2020/12/02 08:46:32;;;;;;;42.05;20.20;;;;;;;1.33;91.27;98900.03;4955686;28;20527;-73
2020/12/02 08:49:01;;;;;;;41.10;18.40;;;;;;;1.31;89.72;98897.47;4955718;28;20056;-73
2020/12/02 08:51:27;;;;;;;39.30;19.77;;;;;;;1.40;90.02;98901.88;4955316;28;20023;-73
2020/12/02 08:53:56;;;;;;;37.47;18.33;;;;;;;1.37;89.25;98901.84;4955244;28;20054;-73
2020/12/02 08:56:29;;;;;;;38.17;17.88;;;;;;;1.43;89.31;98902.81;4970195;28;20497;-74
2020/12/02 08:58:54;;;;;;;37.50;18.83;;;;;;;1.44;90.20;98899.41;4955448;28;20042;-73
2020/12/02 09:01:19;;;;;;;39.22;19.42;;;;;;;1.50;90.69;98903.81;4955058;28;20393;-73
2020/12/02 09:03:45;;;;;;;42.60;20.52;;;;;;;1.56;90.36;98893.72;4955163;28;20037;-73
2020/12/02 09:06:15;;;;;;;33.47;16.85;;;;;;;1.57;89.60;98895.44;4969971;28;20122;-73
2020/12/02 09:08:41;;;;;;;39.20;18.33;;;;;;;1.64;90.37;98886.19;4955465;28;20495;-73
2020/12/02 09:11:07;;;;;;;40.45;18.83;;;;;;;1.73;89.01;98879.56;4954890;28;20051;-73
2020/12/02 09:13:32;;;;;;;37.97;18.60;;;;;;;1.61;88.38;98879.34;4954988;28;20071;-73
2020/12/02 09:15:58;;;;;;;39.17;18.98;;;;;;;1.69;88.99;98880.34;4953798;28;20292;-73
2020/12/02 09:18:23;;;;;;;68.30;25.95;;;;;;;1.63;88.74;98877.66;4955190;28;20465;-73
2020/12/02 09:20:48;;;;;;;177.55;45.38;;;;;;;1.59;89.16;98873.31;4954831;28;20030;-73
2020/12/02 09:23:14;;;;;;;94.20;28.10;;;;;;;1.49;87.78;98871.44;4954678;28;20113;-73
2020/12/02 09:25:39;;;;;;;86.65;27.50;;;;;;;1.51;88.07;98869.78;4954955;28;20023;-73
2020/12/02 09:28:04;;;;;;;49.05;19.83;;;;;;;1.44;88.02;98867.94;4954759;28;20027;-73
2020/12/02 09:30:30;;;;;;;39.80;17.85;;;;;;;1.49;86.95;98863.78;4955049;28;20109;-73
2020/12/02 09:32:55;;;;;;;35.28;16.80;;;;;;;1.50;88.08;98862.97;4954633;28;20543;-73
2020/12/02 09:35:21;;;;;;;32.55;16.30;;;;;;;1.54;88.16;98859.63;4954910;28;20585;-74
2020/12/02 09:37:48;;;;;;;30.60;14.32;;;;;;;1.41;86.22;98858.53;4954593;28;20484;-73
2020/12/02 09:40:14;;;;;;;32.22;15.95;;;;;;;1.45;86.92;98859.44;4954761;28;20437;-73
2020/12/02 09:43:10;;;;;;;34.15;16.45;;;;;;;1.45;87.32;98854.31;4954399;28;20027;-73
2020/12/02 09:45:49;;;;;;;34.17;17.27;;;;;;;1.53;86.07;98851.09;4954555;28;20090;-73
2020/12/02 09:48:19;;;;;;;33.67;16.30;;;;;;;1.40;85.51;98848.28;4954474;28;20031;-73
2020/12/02 09:50:45;;;;;;;36.70;17.05;;;;;;;1.52;87.10;98851.06;4954546;28;20118;-73
2020/12/02 09:53:28;;;;;;;35.00;16.30;;;;;;;1.61;86.49;98850.41;4954214;28;20023;-73
2020/12/02 09:55:55;;;;;;;31.05;16.27;;;;;;;1.69;87.32;98838.59;4954319;28;20015;-73
2020/12/02 09:58:21;;;;;;;30.98;16.30;;;;;;;1.63;85.33;98838.50;4954139;28;20492;-73
2020/12/02 10:00:47;;;;;;;34.33;16.95;;;;;;;1.68;86.27;98831.78;4954260;28;20046;-73
2020/12/02 10:03:21;;;;;;;34.40;17.13;;;;;;;1.73;86.67;98833.59;4954057;28;20109;-73
2020/12/02 10:06:07;;;;;;;28.98;14.98;;;;;;;1.70;85.58;98836.09;4954224;28;20115;-74
2020/12/02 10:08:47;;;;;;;32.53;15.38;;;;;;;1.72;85.67;98824.22;4953606;29;20061;-74
2020/12/02 10:11:38;;;;;;;33.38;16.50;;;;;;;1.91;85.45;98830.50;4953994;28;20038;-73
2020/12/02 10:14:38;;;;;;;32.95;15.07;;;;;;;1.76;85.65;98831.09;4953815;28;20023;-73
2020/12/02 10:17:54;;;;;;;30.48;14.75;;;;;;;1.61;84.61;98825.72;4953831;28;20492;-74
2020/12/02 10:20:27;;;;;;;31.40;16.27;;;;;;;1.75;85.71;98808.94;4941910;28;20504;-73
2020/12/02 10:23:26;;;;;;;34.13;16.17;;;;;;;1.85;85.16;98809.13;4953674;28;20499;-74
2020/12/02 10:26:20;;;;;;;34.63;17.40;;;;;;;1.75;85.03;98801.28;4954081;28;20031;-73
2020/12/02 10:29:10;;;;;;;34.58;16.33;;;;;;;1.77;85.46;98797.06;4953982;28;20030;-74
2020/12/02 10:32:05;;;;;;;31.52;15.23;;;;;;;1.90;84.86;98792.16;4954078;28;20436;-74
2020/12/02 10:34:35;;;;;;;33.63;16.83;;;;;;;2.10;86.18;98790.78;4951799;28;20110;-74
2020/12/02 10:37:05;;;;;;;34.95;17.15;;;;;;;1.87;84.10;98792.97;4953326;28;20031;-73
2020/12/02 10:39:32;;;;;;;33.15;16.35;;;;;;;1.95;85.40;98786.28;4953643;28;20251;-73
2020/12/02 10:42:07;;;;;;;31.40;15.80;;;;;;;1.86;83.97;98783.59;4953396;28;20031;-74
2020/12/02 10:45:10;;;;;;;30.42;15.60;;;;;;;1.62;83.22;98776.38;4968190;28;20118;-74
2020/12/02 10:47:45;;;;;;;31.60;16.42;;;;;;;1.60;83.60;98778.03;4953588;28;20070;-73
2020/12/02 10:50:10;;;;;;;37.05;17.35;;;;;;;1.53;85.34;98764.28;4953326;28;20031;-73
2020/12/02 10:52:38;;;;;;;36.63;16.88;;;;;;;1.51;84.89;98762.56;4953098;28;20357;-73
2020/12/02 10:55:10;;;;;;;35.70;16.80;;;;;;;1.46;84.37;98761.63;4953331;28;20121;-74
2020/12/02 10:57:36;;;;;;;33.00;17.60;;;;;;;1.47;84.51;98765.88;4953348;28;20034;-74
2020/12/02 11:00:03;;;;;;;37.50;17.20;;;;;;;1.49;85.34;98751.44;4953108;28;20031;-74
2020/12/02 11:02:30;;;;;;;34.13;17.08;;;;;;;1.53;84.94;98750.66;4952984;28;20060;-74
2020/12/02 11:04:57;;;;;;;32.92;16.58;;;;;;;1.70;85.32;98744.16;4952994;28;20362;-73
2020/12/02 11:07:37;;;;;;;32.95;17.45;;;;;;;1.56;84.86;98745.63;4951850;29;20023;-74
2020/12/02 11:10:30;;;;;;;34.75;17.30;;;;;;;1.58;85.16;98738.84;4952978;28;20388;-74
2020/12/02 11:13:09;;;;;;;38.33;17.52;;;;;;;1.51;85.59;98737.88;4953408;28;20031;-74
2020/12/02 11:15:55;;;;;;;40.58;18.73;;;;;;;1.54;84.25;98727.72;4950401;28;20031;-74
2020/12/02 11:18:27;;;;;;;41.08;17.75;;;;;;;1.44;84.60;98730.09;4947787;28;20094;-74
2020/12/02 11:21:10;;;;;;;40.53;18.55;;;;;;;1.40;84.68;98728.31;4946882;28;20024;-72
2020/12/02 11:24:04;;;;;;;35.63;17.95;;;;;;;1.47;84.33;98730.16;4945701;29;20042;-73
2020/12/02 11:26:32;;;;;;;40.25;16.70;;;;;;;1.46;84.99;98729.28;4935626;28;20538;-73
2020/12/02 11:29:00;;;;;;;39.08;17.58;;;;;;;1.60;85.48;98732.09;4945831;28;20523;-73
2020/12/02 11:31:44;;;;;;;38.75;18.30;;;;;;;1.45;84.66;98719.03;4944408;28;20054;-73
2020/12/02 11:34:30;;;;;;;40.92;18.05;;;;;;;1.38;84.16;98735.94;4935498;28;20059;-74
2020/12/02 11:37:03;;;;;;;75.78;25.42;;;;;;;1.37;84.97;98733.38;4945999;28;20027;-74
2020/12/02 11:39:33;;;;;;;41.22;19.33;;;;;;;1.31;83.94;98733.28;4944573;29;20050;-73
2020/12/02 11:42:22;;;;;;;38.17;18.55;;;;;;;1.19;85.18;98724.53;4937313;28;20395;-74
2020/12/02 11:44:58;;;;;;;47.07;20.90;;;;;;;1.32;84.99;98719.69;4939143;29;20098;-73
2020/12/02 11:47:36;;;;;;;42.88;19.83;;;;;;;1.24;85.63;98722.06;4954999;28;20086;-74
2020/12/02 11:50:14;;;;;;;40.30;19.20;;;;;;;1.27;85.98;98704.28;4941523;28;20032;-73
2020/12/02 11:53:24;;;;;;;41.15;19.92;;;;;;;1.26;85.85;98708.53;4941958;29;20023;-73
2020/12/02 11:55:51;;;;;;;42.38;19.83;;;;;;;1.19;85.56;98701.56;4960477;28;20046;-73
2020/12/02 11:58:17;;;;;;;47.20;19.92;;;;;;;1.23;85.53;98700.81;4940357;28;20035;-74
2020/12/02 12:00:43;;;;;;;37.95;18.70;;;;;;;1.18;85.38;98696.47;4951101;28;20023;-73
2020/12/02 12:03:39;;;;;;;61.83;24.48;;;;;;;1.13;85.73;98693.81;4945297;29;20153;-73
2020/12/02 12:06:12;;;;;;;42.90;19.20;;;;;;;1.06;85.51;98697.06;4940314;28;20518;-73
2020/12/02 12:08:52;;;;;;;44.97;20.33;;;;;;;1.04;86.05;98693.66;4941307;29;20027;-73
2020/12/02 12:11:31;;;;;;;35.63;16.88;;;;;;;1.15;86.23;98681.94;4956084;28;20023;-73
2020/12/02 12:14:03;;;;;;;35.58;16.73;;;;;;;1.07;84.53;98680.97;4939619;28;20027;-74
2020/12/02 12:16:36;;;;;;;32.05;15.52;;;;;;;1.07;83.98;98673.31;4955663;29;20521;-74
2020/12/02 12:19:27;;;;;;;33.90;17.15;;;;;;;1.04;84.47;98678.34;4948505;28;20059;-73
2020/12/02 12:22:16;;;;;;;32.72;16.35;;;;;;;1.03;83.60;98662.19;4950533;28;20074;-73
2020/12/02 12:24:46;;;;;;;32.78;16.58;;;;;;;1.12;84.36;98660.63;4941839;29;20024;-74
2020/12/02 12:27:13;;;;;;;32.38;15.35;;;;;;;1.17;83.26;98657.31;4955949;28;20034;-73
2020/12/02 12:29:38;;;;;;;33.28;14.57;;;;;;;1.20;83.14;98659.91;4943429;28;20457;-74
2020/12/02 12:32:09;;;;;;;31.05;16.58;;;;;;;1.27;83.47;98651.53;4952214;28;20055;-73
2020/12/02 12:34:56;;;;;;;38.85;18.75;;;;;;;1.34;84.28;98651.63;4955552;28;20047;-74
2020/12/02 12:37:36;;;;;;;125.93;49.30;;;;;;;1.32;82.17;98650.75;4955621;28;20377;-73
2020/12/02 12:40:10;;;;;;;83.78;38.15;;;;;;;1.29;81.90;98649.00;4940334;28;20031;-73
2020/12/02 12:42:38;;;;;;;35.97;17.13;;;;;;;1.33;80.29;98644.81;4942293;29;20494;-73
2020/12/02 12:45:10;;;;;;;44.78;19.55;;;;;;;1.22;80.38;98642.94;4955778;28;20023;-73
2020/12/02 12:47:37;;;;;;;35.22;16.77;;;;;;;1.19;79.59;98648.00;4943654;28;20027;-73
2020/12/02 12:50:06;;;;;;;35.03;17.27;;;;;;;1.16;80.65;98645.41;4951843;29;20074;-73
2020/12/02 12:52:35;;;;;;;35.25;18.05;;;;;;;1.17;82.27;98653.91;4951669;28;20038;-73
2020/12/02 12:55:00;;;;;;;39.07;18.97;;;;;;;1.23;82.38;98649.78;4943320;29;20019;-74
2020/12/02 12:57:28;;;;;;;36.42;17.20;;;;;;;1.36;81.68;98647.44;4944156;28;20042;-73
2020/12/02 12:59:58;;;;;;;37.58;18.38;;;;;;;1.18;82.28;98641.19;4949772;29;20037;-72
2020/12/02 13:02:27;;;;;;;41.25;18.23;;;;;;;1.16;82.91;98642.84;4939214;28;20589;-73
2020/12/02 13:04:53;;;;;;;38.90;17.05;;;;;;;0.89;82.71;98643.22;4948791;28;20015;-73
2020/12/02 13:07:27;;;;;;;36.83;17.75;;;;;;;0.93;82.81;98636.50;4945620;28;20625;-74
2020/12/02 13:10:41;;;;;;;36.30;17.13;;;;;;;0.82;83.46;98640.50;4940885;28;20047;-74
2020/12/02 13:13:21;;;;;;;39.20;16.95;;;;;;;0.70;83.51;98639.47;4942841;29;20025;-74
2020/12/02 13:16:04;;;;;;;;;;;;;;;0.88;84.37;98640.66;4955328;28;20023;-74
2020/12/02 13:18:49;;;;;;;40.05;18.02;;;;;;;1.00;86.23;98635.75;4938938;28;20367;-74
2020/12/02 13:21:25;;;;;;;39.33;17.45;;;;;;;0.94;82.93;98630.56;4945547;28;20118;-74
2020/12/02 13:24:03;;;;;;;42.17;18.48;;;;;;;0.80;83.04;98634.53;4949662;29;20119;-74
2020/12/02 13:26:28;;;;;;;43.50;19.65;;;;;;;0.87;82.97;98628.69;4938655;28;20024;-75
2020/12/02 13:29:32;;;;;;;44.35;18.85;;;;;;;0.80;82.88;98629.44;4948253;28;20020;-75
2020/12/02 13:32:40;;;;;;;37.42;18.02;;;;;;;0.72;83.36;98625.03;4950349;28;20020;-79
2020/12/02 13:35:06;;;;;;;36.58;16.98;;;;;;;0.80;83.10;98630.28;4949998;29;20029;-78
2020/12/02 13:37:31;;;;;;;34.30;16.42;;;;;;;0.88;82.73;98631.31;4952125;29;20035;-79
2020/12/02 13:39:56;;;;;;;35.33;16.90;;;;;;;0.79;82.73;98623.50;4942822;29;20073;-79
2020/12/02 13:42:22;;;;;;;38.53;17.33;;;;;;;0.81;83.59;98620.94;4954324;28;20035;-79
2020/12/02 13:45:16;;;;;;;34.50;16.95;;;;;;;0.93;83.48;98623.75;4948750;28;20015;-78
2020/12/02 13:47:50;;;;;;;35.85;16.63;;;;;;;0.92;82.65;98617.78;4962804;28;20385;-78
2020/12/02 13:50:19;;;;;;;39.58;17.23;;;;;;;0.84;82.63;98613.38;4938590;28;20019;-78
2020/12/02 13:52:55;;;;;;;28.48;14.98;;;;;;;0.88;83.01;98615.16;4947688;28;20070;-78
2020/12/02 13:55:39;;;;;;;67.40;25.38;;;;;;;0.77;82.02;98605.63;4945182;29;20497;-78
2020/12/02 13:58:26;;;;;;;99.53;33.47;;;;;;;0.85;81.85;98609.97;4938111;28;20028;-77
2020/12/02 14:01:06;;;;;;;88.97;29.27;;;;;;;0.90;80.48;98593.06;4952677;28;20090;-78
2020/12/02 14:03:46;;;;;;;40.88;18.45;;;;;;;0.69;80.44;98602.06;4946320;29;20086;-78
2020/12/02 14:06:21;;;;;;;;;;;;;;;0.72;81.45;98602.09;4953381;28;20035;-79
2020/12/02 14:08:46;;;;;;;46.35;21.02;;;;;;;0.71;81.98;98602.94;4940112;29;20379;-79
2020/12/02 14:11:12;;;;;;;29.95;14.85;;;;;;;0.68;81.43;98607.16;4944581;28;20028;-79
2020/12/02 14:13:40;;;;;;;35.05;15.07;;;;;;;0.72;82.70;98598.69;4975871;23;20043;-71
2020/12/02 14:16:07;;;;;;;33.92;14.38;;;;;;;0.76;81.25;98601.31;4953779;28;20135;-71
2020/12/02 14:18:33;;;;;;;29.83;16.00;;;;;;;0.80;82.16;98588.63;4953896;28;20019;-71
2020/12/02 14:20:58;;;;;;;30.25;16.17;;;;;;;0.76;83.35;98591.13;4953836;28;20425;-71
2020/12/02 14:23:24;;;;;;;34.20;15.05;;;;;;;0.80;83.20;98593.75;4965344;28;20032;-71
2020/12/02 14:25:49;;;;;;;27.77;13.38;;;;;;;0.62;82.24;98594.25;4948192;29;20027;-71
2020/12/02 14:28:17;;;;;;;31.05;14.98;;;;;;;0.64;82.32;98596.03;4952444;28;20069;-71
2020/12/02 14:30:44;;;;;;;32.30;14.38;;;;;;;0.79;81.15;98599.69;4939264;29;20532;-71
2020/12/02 14:33:13;;;;;;;26.25;13.15;;;;;;;0.60;81.04;98594.25;4944939;28;20481;-71
2020/12/02 14:35:41;;;;;;;32.73;14.77;;;;;;;0.46;80.93;98599.06;4961483;28;20035;-71
2020/12/02 14:38:19;;;;;;;38.95;16.00;;;;;;;0.59;82.40;98596.78;4936588;29;20043;-71
2020/12/02 14:40:48;;;;;;;34.80;16.63;;;;;;;0.54;81.69;98598.38;4948313;28;20098;-71
2020/12/02 14:43:19;;;;;;;41.85;18.55;;;;;;;0.50;82.78;98598.31;4943077;28;20400;-71
2020/12/02 14:45:45;;;;;;;29.00;15.13;;;;;;;0.59;81.20;98591.66;4939014;28;20067;-72
2020/12/02 14:48:11;;;;;;;33.55;15.35;;;;;;;0.52;83.24;98600.88;4950102;29;20027;-71
2020/12/02 14:50:36;;;;;;;35.33;15.15;;;;;;;0.56;80.93;98592.47;4938426;28;20058;-71
2020/12/02 14:53:02;;;;;;;32.13;14.68;;;;;;;0.52;81.36;98601.72;4945641;28;20054;-71
2020/12/02 14:55:27;;;;;;;31.30;14.57;;;;;;;0.49;79.93;98600.84;4944955;29;20050;-71
2020/12/02 14:57:58;;;;;;;30.65;13.95;;;;;;;0.44;80.89;98602.44;4939023;28;20504;-71
2020/12/02 15:00:24;;;;;;;36.80;15.25;;;;;;;0.52;81.30;98596.63;4949846;29;20038;-71
2020/12/02 15:02:50;;;;;;;34.90;14.27;;;;;;;0.54;79.19;98606.03;4939708;28;20034;-71
2020/12/02 15:05:30;;;;;;;33.30;14.85;;;;;;;0.52;79.58;98611.06;4944122;28;20032;-71
2020/12/02 15:08:12;;;;;;;34.85;14.73;;;;;;;0.56;80.54;98612.00;4948774;29;20439;-72
2020/12/02 15:10:40;;;;;;;36.55;15.23;;;;;;;0.45;81.71;98606.69;4952967;28;20019;-71
2020/12/02 15:13:18;;;;;;;41.85;16.48;;;;;;;0.42;80.95;98609.19;4952864;28;20137;-71
2020/12/02 15:15:44;;;;;;;38.00;17.67;;;;;;;0.33;81.35;98597.13;4939849;28;20544;-71
2020/12/02 15:18:11;;;;;;;57.30;28.42;;;;;;;0.29;80.66;98599.56;4964445;28;20146;-71
2020/12/02 15:20:38;;;;;;;29.38;13.98;;;;;;;0.24;80.50;98595.25;4952569;28;20548;-71
2020/12/02 15:23:07;;;;;;;32.85;14.82;;;;;;;0.10;81.12;98591.59;4944931;28;20027;-70
2020/12/02 15:25:33;;;;;;;33.80;16.10;;;;;;;0.23;80.98;98598.63;4945380;29;20023;-71
2020/12/02 15:28:01;;;;;;;35.25;14.02;;;;;;;0.19;80.48;98588.34;4938009;28;20496;-72
2020/12/02 15:30:35;;;;;;;29.98;14.38;;;;;;;0.15;80.58;98595.09;4948149;29;20024;-71
2020/12/02 15:33:04;;;;;;;29.10;14.85;;;;;;;0.19;80.00;98590.88;4889649;28;20043;-71
2020/12/02 15:35:30;;;;;;;28.60;14.77;;;;;;;0.21;80.27;98589.25;4924016;29;20020;-71
2020/12/02 15:38:13;;;;;;;32.60;15.35;;;;;;;0.11;79.70;98592.44;4928946;29;20035;-70
2020/12/02 15:41:01;;;;;;;35.42;15.65;;;;;;;0.11;80.31;98593.28;4918951;29;20091;-70
2020/12/02 15:44:01;;;;;;;32.38;14.90;;;;;;;0.15;80.27;98584.88;4933490;29;20164;-70
2020/12/02 15:46:32;;;;;;;35.25;15.15;;;;;;;0.08;79.18;98577.09;4933503;29;20027;-70
2020/12/02 15:49:16;;;;;;;52.65;21.95;;;;;;;0.05;79.84;98585.53;4933491;29;20046;-70
2020/12/02 15:51:52;;;;;;;42.10;18.15;;;;;;;0.19;81.82;98583.25;4932241;29;20031;-70
2020/12/02 15:54:28;;;;;;;35.38;16.40;;;;;;;0.04;80.65;98586.34;4933120;29;20034;-70
2020/12/02 15:57:29;;;;;;;30.20;14.80;;;;;;;0.08;80.17;98587.28;4933307;29;20027;-70
2020/12/02 16:00:00;;;;;;;41.33;15.10;;;;;;;0.12;79.35;98592.47;4932179;29;20028;-71
2020/12/02 16:02:27;;;;;;;30.02;14.55;;;;;;;0.08;80.17;98595.75;4933200;29;20032;-70
2020/12/02 16:04:53;;;;;;;36.28;15.65;;;;;;;0.10;80.03;98599.22;4933334;29;20032;-71
2020/12/02 16:07:43;;;;;;;35.83;15.05;;;;;;;0.14;79.49;98598.44;4933362;29;20032;-73
2020/12/02 16:10:09;;;;;;;;;;;;;;;0.17;78.32;98608.69;4933844;28;20087;-70
2020/12/02 16:12:35;;;;;;;35.83;16.40;;;;;;;0.15;78.45;98600.19;4933130;29;19911;-72
2020/12/02 16:15:05;;;;;;;31.98;15.23;;;;;;;0.19;78.68;98607.06;4933096;29;20078;-70
2020/12/02 16:17:30;;;;;;;37.45;16.45;;;;;;;0.24;78.13;98605.47;4933241;29;20463;-70
2020/12/02 16:19:55;;;;;;;100.75;41.53;;;;;;;0.30;79.41;98608.97;4933241;29;20111;-70
2020/12/02 16:23:00;;;;;;;53.63;24.15;;;;;;;0.48;79.30;98602.53;4933248;29;20484;-70
2020/12/02 16:25:25;;;;;;;34.88;16.80;;;;;;;0.41;79.11;98602.38;4932995;29;20036;-71
2020/12/02 16:27:51;;;;;;;33.38;15.50;;;;;;;0.55;80.10;98600.09;4933097;29;20051;-71
2020/12/02 16:30:16;;;;;;;38.42;17.10;;;;;;;0.83;84.03;98598.91;4932970;29;20403;-71
2020/12/02 16:32:54;;;;;;;31.95;15.70;;;;;;;0.51;80.26;98594.06;4932917;29;20052;-71
2020/12/02 16:35:21;;;;;;;43.20;19.50;;;;;;;0.28;79.69;98595.31;4936282;29;20023;-71
2020/12/02 16:37:53;;;;;;;37.70;17.85;;;;;;;0.22;79.48;98591.81;4936569;29;20028;-71
2020/12/02 16:40:18;;;;;;;39.38;17.45;;;;;;;0.27;79.75;98593.59;4936433;29;20032;-71
2020/12/02 16:42:52;;;;;;;35.17;18.23;;;;;;;0.35;80.39;98597.16;4936129;29;20082;-71
2020/12/02 16:45:24;;;;;;;34.08;16.40;;;;;;;0.32;79.78;98594.53;4951322;29;20031;-70
2020/12/02 16:48:00;;;;;;;38.22;17.25;;;;;;;0.24;80.91;98590.16;4936242;29;20027;-71
2020/12/02 16:50:50;;;;;;;41.45;17.02;;;;;;;0.22;80.67;98594.34;4935712;29;20075;-70
2020/12/02 16:53:41;;;;;;;30.20;14.82;;;;;;;0.17;80.33;98593.41;4934960;29;20027;-70
2020/12/02 16:56:24;;;;;;;34.65;17.13;;;;;;;0.24;79.52;98590.16;4935091;29;20118;-70
2020/12/02 16:58:54;;;;;;;41.90;20.63;;;;;;;0.39;79.91;98593.84;4934970;29;20036;-70
2020/12/02 17:01:24;;;;;;;37.60;19.35;;;;;;;0.41;81.41;98587.94;4935081;29;20050;-70
2020/12/02 17:03:53;;;;;;;40.47;18.50;;;;;;;0.52;80.11;98583.03;4934850;29;20060;-72
2020/12/02 17:06:18;;;;;;;48.53;22.70;;;;;;;0.44;80.44;98587.16;4936033;29;20370;-70
2020/12/02 17:08:43;;;;;;;51.00;22.05;;;;;;;0.29;80.50;98581.72;4936360;29;20499;-72
2020/12/02 17:11:21;;;;;;;38.95;18.17;;;;;;;0.27;80.00;98585.94;4936043;29;20114;-71
2020/12/02 17:14:04;;;;;;;39.05;18.75;;;;;;;0.18;79.99;98584.94;4935494;29;20646;-71
2020/12/02 17:17:00;;;;;;;39.78;18.73;;;;;;;0.22;79.35;98584.16;4936171;29;20098;-71
2020/12/02 17:19:35;;;;;;;42.25;20.25;;;;;;;0.15;80.01;98584.88;4939280;29;20559;-71
2020/12/02 17:22:26;;;;;;;42.92;19.73;;;;;;;0.20;79.60;98578.19;4935901;29;20159;-73
2020/12/02 17:25:05;;;;;;;42.45;20.77;;;;;;;0.13;80.33;98581.44;4935796;29;20027;-68
2020/12/02 17:27:36;;;;;;;44.88;19.25;;;;;;;0.43;81.19;98585.41;4935786;29;20027;-68
2020/12/02 17:30:20;;;;;;;34.80;17.13;;;;;;;0.43;79.96;98580.31;4936003;29;20485;-69
2020/12/02 17:33:06;;;;;;;36.60;18.15;;;;;;;0.28;78.80;98574.94;4935596;29;20023;-68
2020/12/02 17:35:48;;;;;;;40.75;18.67;;;;;;;0.20;79.99;98573.09;4935700;29;20051;-69
2020/12/02 17:38:28;;;;;;;35.90;16.05;;;;;;;0.16;78.03;98576.41;4935616;29;20036;-69
2020/12/02 17:41:15;;;;;;;42.80;20.48;;;;;;;0.23;79.39;98583.34;4935773;29;20032;-69
2020/12/02 17:44:04;;;;;;;42.90;20.38;;;;;;;0.35;80.90;98580.19;4935188;29;20063;-69
2020/12/02 17:46:38;;;;;;;49.85;22.80;;;;;;;0.30;78.60;98579.22;4950356;29;20027;-69
2020/12/02 17:49:19;;;;;;;35.65;15.88;;;;;;;0.22;77.97;98581.63;4935277;29;20023;-69
2020/12/02 17:51:59;;;;;;;37.35;16.60;;;;;;;0.17;78.66;98580.66;4935692;29;20107;-69
2020/12/02 17:54:24;;;;;;;33.05;16.27;;;;;;;0.09;77.83;98587.28;4935093;29;20059;-69
2020/12/02 17:56:53;;;;;;;30.85;15.27;;;;;;;0.10;78.66;98576.31;4935283;29;20110;-69
2020/12/02 17:59:30;;;;;;;36.53;16.77;;;;;;;0.15;79.26;98574.69;4935064;29;20151;-69
2020/12/02 18:02:04;;;;;;;39.10;18.20;;;;;;;0.17;78.74;98572.16;4935204;29;20059;-69
2020/12/02 18:04:59;;;;;;;40.22;18.02;;;;;;;0.17;78.93;98573.03;4935052;28;20155;-68
2020/12/02 18:07:40;;;;;;;37.00;16.92;;;;;;;0.08;79.69;98577.94;4935167;29;20027;-68
2020/12/02 18:10:27;;;;;;;39.47;19.08;;;;;;;0.06;80.64;98569.41;4935008;29;20042;-68
2020/12/02 18:13:37;;;;;;;42.80;18.40;;;;;;;0.15;81.31;98568.75;4934746;29;20039;-68
2020/12/02 18:16:11;;;;;;;38.63;17.73;;;;;;;0.07;80.72;98576.22;4937645;29;20121;-68
2020/12/02 18:19:00;;;;;;;39.90;17.45;;;;;;;0.07;80.54;98578.78;4934042;29;20042;-69
2020/12/02 18:21:44;;;;;;;42.90;19.08;;;;;;;0.03;80.97;98584.63;4949110;29;20056;-69
2020/12/02 18:24:28;;;;;;;44.53;18.98;;;;;;;0.06;80.75;98573.66;4934674;29;20071;-70
2020/12/02 18:27:23;;;;;;;39.42;19.23;;;;;;;-0.02;81.05;98573.50;4934593;29;20111;-69
2020/12/02 18:30:15;;;;;;;37.80;17.27;;;;;;;-0.12;79.39;98569.88;4934791;29;20385;-69
2020/12/02 18:32:54;;;;;;;45.38;18.13;;;;;;;-0.13;79.71;98577.50;4934447;29;20476;-69
2020/12/02 18:35:50;;;;;;;46.00;18.90;;;;;;;-0.16;79.46;98574.88;4934678;29;20066;-69
2020/12/02 18:38:57;;;;;;;44.22;19.25;;;;;;;-0.10;80.03;98587.75;4933391;29;20067;-69
2020/12/02 18:42:02;;;;;;;40.88;17.00;;;;;;;-0.14;79.50;98575.78;4934365;29;20098;-69
2020/12/02 18:44:29;;;;;;;43.88;18.48;;;;;;;-0.11;79.52;98593.66;4934327;29;20036;-69
2020/12/02 18:47:00;;;;;;;38.45;17.23;;;;;;;-0.16;79.71;98585.06;4934314;29;20023;-69
2020/12/02 18:49:46;;;;;;;47.63;20.77;;;;;;;-0.11;79.40;98586.03;4934307;29;20027;-69
2020/12/02 18:52:15;;;;;;;42.80;19.02;;;;;;;-0.01;79.71;98583.69;4934307;29;20038;-69
2020/12/02 18:54:41;;;;;;;41.72;17.83;;;;;;;-0.19;79.18;98577.34;4948772;28;20031;-69
2020/12/02 18:57:30;;;;;;;41.90;17.55;;;;;;;-0.16;79.63;98578.28;4933533;29;20498;-70
2020/12/02 18:59:56;;;;;;;41.58;19.58;;;;;;;-0.20;79.62;98576.50;4934440;29;20520;-70
2020/12/02 19:02:27;;;;;;;43.03;19.67;;;;;;;-0.13;79.76;98582.59;4934375;29;20039;-70
2020/12/02 19:05:02;;;;;;;41.55;18.88;;;;;;;-0.20;79.78;98575.66;4934445;29;20070;-70
2020/12/02 19:07:32;;;;;;;41.33;19.65;;;;;;;-0.25;80.32;98575.53;4934256;29;20054;-69
2020/12/02 19:10:01;;;;;;;44.17;21.48;;;;;;;-0.22;80.94;98577.31;4934039;29;20019;-72
2020/12/02 19:12:46;;;;;;;50.13;22.07;;;;;;;-0.14;81.36;98575.78;4933827;29;20028;-68
2020/12/02 19:15:45;;;;;;;54.55;23.65;;;;;;;-0.09;81.52;98576.75;4934004;29;20046;-69
2020/12/02 19:18:51;;;;;;;45.70;21.02;;;;;;;0.15;84.67;98577.25;5068340;28;20350;-68
2020/12/02 19:21:30;;;;;;;47.88;22.88;;;;;;;-0.08;80.60;98581.00;5066926;28;20398;-69